x

Albatross Bank - 104nm South Of Kodiak, Ak (46078) Wave Buoy

3:50pm - Tue 7th Jul 2015 All times are AKDT. -8 hours from GMT.

  • Sig Wave height 6.6ft
  • Swell Direction
  • Peak Period 9s
  • Average Period 7s
  • Wind
    11mph, 13mph gusts
  • Sea Temp 53°f
  • Air Temp 51°f
  • Sea Pressure 1017.7mb
  • Albatross Bank - 104nm South Of Kodiak, Ak
  • Albatross Bank - 104nm South Of Kodiak, Ak

More Historic Weather Station data

Upgrade to MSW Pro to gain access to the past 30 days of data for over 8000 Wavebouys and Weather Stations around the globe.

Join Pro

Comparision Forecast

View Surf forecast
   
Tue 07/07 3:50pm 6.5ft 9s 7s 11 13 mph 1017.7mb 53f 51f
2:50pm 5.5ft 9s 6s 11 13 mph 1017.6mb 53f 52f
1:50pm 6ft 9s 7s 11 13 mph 1017.5mb 52f 51f
12:50pm 7ft 9s 7s 13 16 mph 1017.3mb 52f 51f
11:50am 7ft 10s 7s 13 16 mph 1016.9mb 52f 51f
10:50am 7ft 9s 7s 13 16 mph 1016.6mb 52f 51f
9:50am 7ft 9s 7s 13 16 mph 1016.2mb 52f 51f
8:50am 6.5ft 10s 7s 16 18 mph 1016mb 52f 51f
7:50am 6.5ft 10s 7s 16 18 mph 1015.8mb 52f 51f
6:50am 7.5ft 9s 7s 16 18 mph 1015.5mb 52f 51f
5:50am 7.5ft 10s 7s 16 18 mph 1015.1mb 52f 51f
4:50am 7.5ft 9s 7s 16 20 mph 1015.2mb 52f 51f
3:50am 7.5ft 9s 7s 16 18 mph 1015.2mb 52f 52f
2:50am 8ft 9s 7s 13 18 mph 1015mb 52f 52f
1:50am 7.5ft 9s 7s 11 16 mph 1014.9mb 52f 52f
12:50am 7.5ft 9s 7s 16 18 mph 1014.7mb 52f 52f
Mon 07/06 11:50pm 7ft 10s 7s 11 16 mph 1014.4mb 52f 52f
10:50pm 7.5ft 9s 7s 16 20 mph 1014mb 52f 52f
9:50pm 8ft 9s 7s 13 18 mph 1013.2mb 52f 52f
8:50pm 8ft 10s 7s 11 16 mph 1012.7mb 52f 52f
7:50pm 7ft 10s 7s 11 13 mph 1012mb 52f 52f
6:50pm 7.5ft 9s 7s 11 13 mph 1011.5mb 52f 52f
5:50pm 8ft 9s 7s 11 13 mph 1011.1mb 52f 52f
4:50pm 7.5ft 10s 6s 13 16 mph 1010.9mb 52f 52f
3:50pm 8ft 10s 7s 16 20 mph 1010.8mb 53f 52f
2:50pm 8.5ft 9s 6s 16 20 mph 1010.7mb 52f 52f
1:50pm 8.5ft 10s 6s 18 22 mph 1010.8mb 52f 52f
12:50pm 9ft 8s 6s 20 25 mph 1010.8mb 52f 52f
11:50am 9ft 9s 6s 20 25 mph 1010.7mb 52f 52f
10:50am 8ft 8s 6s 22 27 mph 1010.9mb 52f 53f
9:50am 8.5ft 10s 6s 22 27 mph 1010.4mb 52f 53f
8:50am 8ft 8s 6s 22 27 mph 1010.9mb 52f 53f
7:50am 7.5ft 9s 6s 22 27 mph 1010.9mb 52f 53f
6:50am 8ft 10s 6s 22 29 mph 1011.1mb 52f 53f
5:50am 8ft 10s 6s 22 27 mph 1011.5mb 52f 53f
4:50am 8.5ft 9s 6s 22 27 mph 1012.1mb 52f 53f
3:50am 8.5ft 9s 6s 22 27 mph 1012.3mb 52f 53f
2:50am 8.5ft 8s 6s 20 25 mph 1012.9mb 52f 53f
1:50am 8ft 9s 6s 20 25 mph 1012.8mb 52f 53f
12:50am 8ft 8s 6s 22 27 mph 1013.5mb 53f 53f
Sun 07/05 11:50pm 7.5ft 9s 6s 22 27 mph 1013.8mb 53f 53f
10:50pm 7.5ft 8s 6s 22 27 mph 1013.8mb 53f 53f
9:50pm 8ft 9s 6s 22 27 mph 1013.7mb 53f 53f
8:50pm 7.5ft 8s 6s 22 25 mph 1014.1mb 53f 53f
7:50pm 7ft 9s 6s 20 22 mph 1014.4mb 53f 53f
6:50pm 7ft 8s 6s 20 22 mph 1014.7mb 53f 53f
5:50pm 7ft 7s 6s 20 25 mph 1015.1mb 53f 53f
4:50pm 6.5ft 7s 6s 20 25 mph 1015.4mb 53f 54f
3:50pm 6.5ft 6s 5s 20 22 mph 1015.1mb 53f 54f
2:50pm 6ft 6s 5s 22 27 mph 1015.3mb 53f 54f
1:50pm 7ft 6s 6s 25 29 mph 1015.2mb 52f 55f
12:50pm 6ft 9s 6s 22 27 mph 1015mb 52f 54f
11:50am 6.5ft 6s 6s 18 22 mph 1015.5mb 52f 54f
10:50am 6.5ft 10s 6s 20 25 mph 1015.7mb 52f 53f
9:50am 6ft 10s 6s 22 25 mph 1015.7mb 52f 53f
8:50am 6ft 11s 6s 20 25 mph 1016.1mb 52f 53f
7:50am 6ft 7s 6s 20 25 mph 1016.1mb 52f 53f
6:50am 6ft 8s 6s 20 25 mph 1016.1mb 52f 53f
5:50am 6ft 7s 6s 20 22 mph 1016.1mb 52f 53f
4:50am 6ft 9s 6s 18 22 mph 1016.2mb 52f 53f
3:50am 6ft 8s 6s 16 18 mph 1017.1mb 52f 53f
2:50am 7ft 8s 7s 16 18 mph 1017.6mb 52f 53f
1:50am 7ft 8s 6s 18 20 mph 1017.6mb 53f 53f
12:50am 7ft 9s 6s 16 18 mph 1018.4mb 53f 53f
Sat 07/04 11:50pm 7ft 9s 6s 16 18 mph 1018.6mb 53f 52f
10:50pm 6.5ft 8s 6s 13 18 mph 1018.7mb 53f 52f
9:50pm 7ft 9s 6s 16 18 mph 1018.7mb 53f 51f
8:50pm 6.5ft 8s 6s 11 16 mph 1018.1mb 53f 51f
7:50pm 7ft 8s 6s 13 18 mph 1018.2mb 53f 52f
6:50pm 6.5ft 7s 6s 13 18 mph 1017.8mb 53f 52f
5:50pm 6ft 8s 6s 16 20 mph 1017.5mb 53f 52f
4:50pm 6ft 7s 6s 16 20 mph 1017.1mb 53f 52f
3:50pm 6ft 7s 6s 18 22 mph 1016.6mb 53f 52f
2:50pm 6ft 6s 6s 18 22 mph 1016.2mb 53f 52f
1:50pm 6ft 7s 6s 16 20 mph 1015.6mb 53f 52f
12:50pm 6.5ft 6s 6s 18 22 mph 1015mb 53f 52f
11:50am 6.5ft 7s 6s 20 25 mph 1014.3mb 53f 52f
10:50am 6.5ft 7s 6s 20 25 mph 1013.6mb 53f 52f
9:50am 7ft 7s 6s 18 22 mph 1012.8mb 53f 52f
8:50am 6ft 7s 6s 20 22 mph 1011.9mb 53f 52f
7:50am 6ft 7s 6s 18 22 mph 1011.3mb 53f 52f
6:50am 6ft 8s 5s 20 22 mph 1010.6mb 53f 52f
5:50am 6ft 7s 6s 20 22 mph 1010mb 52f 52f
4:50am 6.5ft 7s 6s 18 20 mph 1009.8mb 53f 52f
3:50am 7ft 8s 6s 18 22 mph 1009.7mb 53f 52f
2:50am 7ft 7s 6s 16 18 mph 1009.8mb 53f 52f
1:50am 7.5ft 8s 6s 18 22 mph 1010.3mb 53f 53f